Time;durP1;ratioP1;P1;durP2;ratioP2;P2;SDS_P1;SDS_P2;PMS_P1;PMS_P2;Temp;Humidity;BMP_temperature;BMP_pressure;BME280_temperature;BME280_humidity;BME280_pressure;Samples;Min_cycle;Max_cycle;Signal;HPM_P1;HPM_P2
2022/05/24 00:01:23;;;;;;;;;;;17.40;99.90;;;;;;5038512;28;19928;-81
2022/05/24 00:03:51;;;;;;;;;;;17.40;99.90;;;;;;5045582;28;19928;-81
2022/05/24 00:06:18;;;;;;;;;;;17.40;99.90;;;;;;5044366;28;20291;-81
2022/05/24 00:08:45;;;;;;;;;;;17.40;99.90;;;;;;5040635;28;19928;-80
2022/05/24 00:11:12;;;;;;;;;;;17.40;99.90;;;;;;5039251;28;20574;-80
2022/05/24 00:13:40;;;;;;;;;;;17.40;99.90;;;;;;5036449;28;19952;-81
2022/05/24 00:16:07;;;;;;;;;;;17.30;99.90;;;;;;5041049;28;20023;-81
2022/05/24 00:18:34;;;;;;;;;;;17.40;99.90;;;;;;5038252;28;19933;-81
2022/05/24 00:21:02;;;;;;;;;;;17.30;99.90;;;;;;5044062;28;19972;-81
2022/05/24 00:23:30;;;;;;;;;;;17.30;99.90;;;;;;5037810;28;19972;-80
2022/05/24 00:25:57;;;;;;;;;;;17.30;99.90;;;;;;5041149;28;20591;-80
2022/05/24 00:28:25;;;;;;;;;;;17.30;99.90;;;;;;5038974;28;20022;-81
2022/05/24 00:30:54;;;;;;;;;;;17.30;99.90;;;;;;5040871;28;19932;-80
2022/05/24 00:33:22;;;;;;;;;;;17.30;99.90;;;;;;5040087;28;19928;-81
2022/05/24 00:35:49;;;;;;;;;;;17.30;99.90;;;;;;5043492;28;19944;-80
2022/05/24 00:38:20;;;;;;;;;;;17.20;99.90;;;;;;5038280;28;19960;-80
2022/05/24 00:40:51;;;;;;;;;;;17.30;99.90;;;;;;5038345;28;19939;-80
2022/05/24 00:43:23;;;;;;;;;;;17.20;99.90;;;;;;5035397;28;19929;-80
2022/05/24 00:45:52;;;;;;;;;;;17.20;99.90;;;;;;5037747;28;19925;-80
2022/05/24 00:48:23;;;;;;;;;;;17.20;99.90;;;;;;5044415;28;20426;-80
2022/05/24 00:50:51;;;;;;;;;;;17.20;99.90;;;;;;5039749;28;19939;-80
2022/05/24 00:53:21;;;;;;;;;;;17.20;99.90;;;;;;5038696;28;19931;-80
2022/05/24 00:55:50;;;;;;;;;;;17.20;99.90;;;;;;5036012;28;20376;-80
2022/05/24 00:58:23;;;;;;;;;;;17.20;99.90;;;;;;5032266;28;20298;-80
2022/05/24 01:00:50;;;;;;;;;;;17.20;99.90;;;;;;5038083;28;19928;-81
2022/05/24 01:03:17;;;;;;;;;;;17.10;99.90;;;;;;5030668;28;19929;-80
2022/05/24 01:05:45;;;;;;;;;;;17.10;99.90;;;;;;5055569;28;19955;-80
2022/05/24 01:08:12;;;;;;;;;;;17.10;99.90;;;;;;5037549;28;20587;-81
2022/05/24 01:10:42;;;;;;;;;;;17.10;99.90;;;;;;5037834;28;20063;-81
2022/05/24 01:13:11;;;;;;;;;;;17.10;99.90;;;;;;5039506;28;19924;-81
2022/05/24 01:15:38;;;;;;;;;;;17.10;99.90;;;;;;5040468;28;19936;-78
2022/05/24 01:18:05;;;;;;;;;;;17.10;99.90;;;;;;5041848;28;19928;-80
2022/05/24 01:20:32;;;;;;;;;;;17.10;99.90;;;;;;5035573;28;20028;-80
2022/05/24 01:23:16;;;;;;;;;;;17.10;99.90;;;;;;5041616;28;19937;-80
2022/05/24 01:25:49;;;;;;;;;;;17.10;99.90;;;;;;5036677;28;19931;-80
2022/05/24 01:28:23;;;;;;;;;;;17.00;99.90;;;;;;5034451;28;19961;-80
2022/05/24 01:30:50;;;;;;;;;;;17.00;99.90;;;;;;5039655;28;19932;-80
2022/05/24 01:36:13;;;;;;;;;;;17.00;99.90;;;;;;5043984;28;19928;-80
2022/05/24 01:38:41;;;;;;;;;;;17.00;99.90;;;;;;5041233;28;19925;-81
2022/05/24 01:41:09;;;;;;;;;;;17.00;99.90;;;;;;5039926;28;19925;-80
2022/05/24 01:43:38;;;;;;;;;;;17.00;99.90;;;;;;5039193;28;19936;-81
2022/05/24 01:46:07;;;;;;;;;;;17.00;99.90;;;;;;5039129;28;19931;-81
2022/05/24 01:48:36;;;;;;;;;;;17.00;99.90;;;;;;5042206;28;19925;-80
2022/05/24 01:51:06;;;;;;;;;;;16.90;99.90;;;;;;5040824;28;19940;-79
2022/05/24 01:53:40;;;;;;;;;;;17.00;99.90;;;;;;5033082;28;19925;-80
2022/05/24 01:56:09;;;;;;;;;;;17.00;99.90;;;;;;5031968;28;19952;-80
2022/05/24 01:58:39;;;;;;;;;;;16.90;99.90;;;;;;5036627;28;19936;-80
2022/05/24 02:01:08;;;;;;;;;;;16.90;99.90;;;;;;5037039;28;19928;-80
2022/05/24 02:03:38;;;;;;;;;;;16.90;99.90;;;;;;5038750;28;19932;-80
2022/05/24 02:06:17;;;;;;;;;;;16.90;99.90;;;;;;5035485;28;19925;-81
2022/05/24 02:08:44;;;;;;;;;;;16.90;99.90;;;;;;5035696;28;19967;-81
2022/05/24 02:11:11;;;;;;;;;;;16.90;99.90;;;;;;5040155;28;19925;-81
2022/05/24 02:13:42;;;;;;;;;;;16.90;99.90;;;;;;5043112;28;20422;-80
2022/05/24 02:16:11;;;;;;;;;;;16.90;99.90;;;;;;5039077;28;19932;-80
2022/05/24 02:18:39;;;;;;;;;;;16.90;99.90;;;;;;5039851;28;19929;-81
2022/05/24 02:21:06;;;;;;;;;;;16.90;99.90;;;;;;5041985;28;19991;-80
2022/05/24 02:23:40;;;;;;;;;;;16.80;99.90;;;;;;5043793;28;19982;-81
2022/05/24 02:26:08;;;;;;;;;;;16.80;99.90;;;;;;5038481;28;20665;-81
2022/05/24 02:28:35;;;;;;;;;;;16.80;99.90;;;;;;5041425;28;19986;-80
2022/05/24 02:31:05;;;;;;;;;;;16.80;99.90;;;;;;5043830;28;19929;-81
2022/05/24 02:33:33;;;;;;;;;;;16.80;99.90;;;;;;5039281;28;19940;-81
2022/05/24 02:36:00;;;;;;;;;;;16.80;99.90;;;;;;5040144;28;19925;-80
2022/05/24 02:38:27;;;;;;;;;;;16.80;99.90;;;;;;5040153;28;19925;-80
2022/05/24 02:43:38;;;;;;;;;;;16.80;99.90;;;;;;5028014;28;20330;-80
2022/05/24 02:46:07;;;;;;;;;;;16.80;99.90;;;;;;5037861;28;20378;-81
2022/05/24 02:48:34;;;;;;;;;;;16.80;99.90;;;;;;5037283;28;19960;-81
2022/05/24 02:51:01;;;;;;;;;;;16.80;99.90;;;;;;5042219;28;19939;-81
2022/05/24 02:53:28;;;;;;;;;;;16.80;99.90;;;;;;5038237;28;19931;-80
2022/05/24 02:55:55;;;;;;;;;;;16.70;99.90;;;;;;5041192;28;19933;-80
2022/05/24 02:58:22;;;;;;;;;;;16.70;99.90;;;;;;5035494;28;19924;-81
2022/05/24 03:00:49;;;;;;;;;;;16.70;99.90;;;;;;5043515;28;20074;-81
2022/05/24 03:03:17;;;;;;;;;;;16.70;99.90;;;;;;5047861;28;19929;-81
2022/05/24 03:05:44;;;;;;;;;;;16.70;99.90;;;;;;5058562;28;19932;-80
2022/05/24 03:10:57;;;;;;;;;;;16.70;99.90;;;;;;5042139;28;19928;-81
2022/05/24 03:16:08;;;;;;;;;;;16.70;99.90;;;;;;5036215;28;19953;-81
2022/05/24 03:18:37;;;;;;;;;;;16.70;99.90;;;;;;5037379;28;20074;-81
2022/05/24 03:21:04;;;;;;;;;;;16.70;99.90;;;;;;5032544;28;19929;-81
2022/05/24 03:23:31;;;;;;;;;;;16.70;99.90;;;;;;5035880;28;19933;-80
2022/05/24 03:25:57;;;;;;;;;;;16.70;99.90;;;;;;5042928;28;20371;-80
2022/05/24 03:28:24;;;;;;;;;;;16.70;99.90;;;;;;5038937;28;20019;-81
2022/05/24 03:30:51;;;;;;;;;;;16.70;99.90;;;;;;5040800;28;19925;-81
2022/05/24 03:33:18;;;;;;;;;;;16.60;99.90;;;;;;5042574;28;19929;-81
2022/05/24 03:35:46;;;;;;;;;;;16.60;99.90;;;;;;5037055;28;19928;-80
2022/05/24 03:38:13;;;;;;;;;;;16.60;99.90;;;;;;5036847;28;19944;-80
2022/05/24 03:40:40;;;;;;;;;;;16.60;99.90;;;;;;5041781;28;19972;-80
2022/05/24 03:43:11;;;;;;;;;;;16.60;99.90;;;;;;5034953;28;19996;-81
2022/05/24 03:45:38;;;;;;;;;;;16.60;99.90;;;;;;5038765;28;19933;-83
2022/05/24 03:48:05;;;;;;;;;;;16.60;99.90;;;;;;5055510;28;19933;-80
2022/05/24 03:50:32;;;;;;;;;;;16.60;99.90;;;;;;5036152;28;20447;-80
2022/05/24 03:53:01;;;;;;;;;;;16.60;99.90;;;;;;5039260;28;19963;-80
2022/05/24 03:55:27;;;;;;;;;;;16.60;99.90;;;;;;5042033;28;19931;-80
2022/05/24 03:58:02;;;;;;;;;;;16.60;99.90;;;;;;5042378;28;19971;-80
2022/05/24 04:00:30;;;;;;;;;;;16.60;99.90;;;;;;5027195;28;20015;-81
2022/05/24 04:02:57;;;;;;;;;;;16.60;99.90;;;;;;5038605;28;19939;-81
2022/05/24 04:05:24;;;;;;;;;;;16.60;99.90;;;;;;5032749;28;19925;-81
2022/05/24 04:07:51;;;;;;;;;;;16.60;99.90;;;;;;5042381;28;19929;-81
2022/05/24 04:10:20;;;;;;;;;;;16.50;99.90;;;;;;5042342;28;19948;-80
2022/05/24 04:12:47;;;;;;;;;;;16.50;99.90;;;;;;5046722;28;19929;-81
2022/05/24 04:15:15;;;;;;;;;;;16.60;99.90;;;;;;5037021;28;21243;-80
2022/05/24 04:17:42;;;;;;;;;;;16.50;99.90;;;;;;5037261;28;20024;-81
2022/05/24 04:20:10;;;;;;;;;;;16.50;99.90;;;;;;5041707;28;19937;-81
2022/05/24 04:22:39;;;;;;;;;;;16.50;99.90;;;;;;5041882;28;19933;-80
2022/05/24 04:25:07;;;;;;;;;;;16.50;99.90;;;;;;5033908;28;20027;-81
2022/05/24 04:27:35;;;;;;;;;;;16.50;99.90;;;;;;5038826;28;20055;-80
2022/05/24 04:30:02;;;;;;;;;;;16.50;99.90;;;;;;5038530;28;19937;-81
2022/05/24 04:32:29;;;;;;;;;;;16.50;99.90;;;;;;5041147;28;19990;-81
2022/05/24 04:34:56;;;;;;;;;;;16.50;99.90;;;;;;5044460;28;19978;-80
2022/05/24 04:37:23;;;;;;;;;;;16.50;99.90;;;;;;5041949;28;19933;-80
2022/05/24 04:39:50;;;;;;;;;;;16.50;99.90;;;;;;5036939;28;19936;-85
2022/05/24 04:42:19;;;;;;;;;;;16.50;99.90;;;;;;5038353;28;20010;-83
2022/05/24 04:44:48;;;;;;;;;;;16.50;99.90;;;;;;5044977;28;19948;-82
2022/05/24 04:47:15;;;;;;;;;;;16.50;99.90;;;;;;5045024;28;19940;-87
2022/05/24 04:49:43;;;;;;;;;;;16.50;99.90;;;;;;5031657;28;19929;-81
2022/05/24 04:52:12;;;;;;;;;;;16.50;99.90;;;;;;5039323;28;20391;-80
2022/05/24 04:54:40;;;;;;;;;;;16.50;99.90;;;;;;5043983;28;19929;-83
2022/05/24 04:57:07;;;;;;;;;;;16.50;99.90;;;;;;5049160;28;20720;-85
2022/05/24 04:59:33;;;;;;;;;;;16.50;99.90;;;;;;5041487;28;19924;-79
2022/05/24 05:02:02;;;;;;;;;;;16.50;99.90;;;;;;5047196;28;19925;-80
2022/05/24 05:04:29;;;;;;;;;;;16.50;99.90;;;;;;5042505;28;19959;-79
2022/05/24 05:06:56;;;;;;;;;;;16.50;99.90;;;;;;5038843;28;19928;-80
2022/05/24 05:09:23;;;;;;;;;;;16.40;99.90;;;;;;5037937;28;20316;-81
2022/05/24 05:11:50;;;;;;;;;;;16.40;99.90;;;;;;5045818;28;20098;-83
2022/05/24 05:14:16;;;;;;;;;;;16.40;99.90;;;;;;5051278;28;19924;-82
2022/05/24 05:16:43;;;;;;;;;;;16.50;99.90;;;;;;5046064;28;19998;-80
2022/05/24 05:19:12;;;;;;;;;;;16.40;99.90;;;;;;5043606;28;19933;-82
2022/05/24 05:21:41;;;;;;;;;;;16.50;99.90;;;;;;5043363;28;19925;-81
2022/05/24 05:24:08;;;;;;;;;;;16.50;99.90;;;;;;5044382;28;19933;-80
2022/05/24 05:26:35;;;;;;;;;;;16.50;99.90;;;;;;5044939;28;19974;-79
2022/05/24 05:29:02;;;;;;;;;;;16.40;99.90;;;;;;5036697;28;19932;-81
2022/05/24 05:31:28;;;;;;;;;;;16.40;99.90;;;;;;5043620;28;19924;-81
2022/05/24 05:33:56;;;;;;;;;;;16.40;99.90;;;;;;5043052;28;20312;-81
2022/05/24 05:36:24;;;;;;;;;;;16.40;99.90;;;;;;5041550;28;19943;-80
2022/05/24 05:38:52;;;;;;;;;;;16.50;99.90;;;;;;5038713;28;19956;-81
2022/05/24 05:41:19;;;;;;;;;;;16.50;99.90;;;;;;5035209;28;19931;-81
2022/05/24 05:43:46;;;;;;;;;;;16.50;99.90;;;;;;5044974;28;19974;-81
2022/05/24 05:46:14;;;;;;;;;;;16.40;99.90;;;;;;5048617;28;19939;-81
2022/05/24 05:48:42;;;;;;;;;;;16.40;99.90;;;;;;5045400;28;19925;-80
2022/05/24 05:51:09;;;;;;;;;;;16.40;99.90;;;;;;5043901;28;19932;-80
2022/05/24 05:53:38;;;;;;;;;;;16.40;99.90;;;;;;5043335;28;19925;-78
2022/05/24 05:56:05;;;;;;;;;;;16.40;99.90;;;;;;5044402;28;20365;-78
2022/05/24 05:58:32;;;;;;;;;;;16.40;99.90;;;;;;5047568;28;19928;-78
2022/05/24 06:01:00;;;;;;;;;;;16.40;99.90;;;;;;5050561;28;19931;-78
2022/05/24 06:03:27;;;;;;;;;;;16.40;99.90;;;;;;5051580;28;19940;-78
2022/05/24 06:05:54;;;;;;;;;;;16.40;99.90;;;;;;5045155;28;19958;-78
2022/05/24 06:08:21;;;;;;;;;;;16.40;99.90;;;;;;5049374;28;19925;-78
2022/05/24 06:10:50;;;;;;;;;;;16.40;99.90;;;;;;5049211;28;20295;-80
2022/05/24 06:13:19;;;;;;;;;;;16.40;99.90;;;;;;5045796;28;19932;-79
2022/05/24 06:15:48;;;;;;;;;;;16.40;99.90;;;;;;5050692;28;19986;-79
2022/05/24 06:18:15;;;;;;;;;;;16.40;99.90;;;;;;5048466;28;19928;-79
2022/05/24 06:20:41;;;;;;;;;;;16.40;99.90;;;;;;5045139;28;19990;-79
2022/05/24 06:23:08;;;;;;;;;;;16.40;99.90;;;;;;5044360;28;19990;-79
2022/05/24 06:25:36;;;;;;;;;;;16.40;99.90;;;;;;5045267;28;19979;-78
2022/05/24 06:28:04;;;;;;;;;;;16.40;99.90;;;;;;5050218;28;19925;-79
2022/05/24 06:30:32;;;;;;;;;;;16.40;99.90;;;;;;5043047;28;19990;-79
2022/05/24 06:32:58;;;;;;;;;;;16.40;99.90;;;;;;5049272;28;20341;-79
2022/05/24 06:35:25;;;;;;;;;;;16.40;99.90;;;;;;5044689;28;19933;-79
2022/05/24 06:37:53;;;;;;;;;;;16.40;99.90;;;;;;5054543;28;19924;-79
2022/05/24 06:40:20;;;;;;;;;;;16.40;99.90;;;;;;5042085;28;19931;-79
2022/05/24 06:42:47;;;;;;;;;;;16.40;99.90;;;;;;5042256;28;19925;-78
2022/05/24 06:45:16;;;;;;;;;;;16.40;99.90;;;;;;5040237;28;20399;-79
2022/05/24 06:47:42;;;;;;;;;;;16.30;99.90;;;;;;5045306;28;19925;-79
2022/05/24 06:50:10;;;;;;;;;;;16.40;99.90;;;;;;5043466;28;19932;-79
2022/05/24 06:52:37;;;;;;;;;;;16.30;99.90;;;;;;5053025;28;19951;-79
2022/05/24 06:55:05;;;;;;;;;;;16.30;99.90;;;;;;5048763;28;19929;-79
2022/05/24 06:57:32;;;;;;;;;;;16.30;99.90;;;;;;5047897;28;19932;-79
2022/05/24 07:02:45;;;;;;;;;;;16.30;99.90;;;;;;5041073;28;19921;-79
2022/05/24 07:05:14;;;;;;;;;;;16.30;99.90;;;;;;5040991;28;19924;-79
2022/05/24 07:07:41;;;;;;;;;;;16.30;99.90;;;;;;5051719;28;19924;-79
2022/05/24 07:10:10;;;;;;;;;;;16.30;99.90;;;;;;5054790;28;19975;-79
2022/05/24 07:12:37;;;;;;;;;;;16.30;99.90;;;;;;5055363;28;20016;-79
2022/05/24 07:15:04;;;;;;;;;;;16.30;99.90;;;;;;5054520;28;19928;-79
2022/05/24 07:17:31;;;;;;;;;;;16.30;99.90;;;;;;5048040;28;19924;-79
2022/05/24 07:20:00;;;;;;;;;;;16.30;99.90;;;;;;5051752;28;20488;-79
2022/05/24 07:22:26;;;;;;;;;;;16.30;99.90;;;;;;5047140;28;19926;-79
2022/05/24 07:24:53;;;;;;;;;;;16.30;99.90;;;;;;5048212;28;19932;-80
2022/05/24 07:27:21;;;;;;;;;;;16.30;99.90;;;;;;5050803;28;19932;-79
2022/05/24 07:29:49;;;;;;;;;;;16.20;99.90;;;;;;5053919;28;19931;-79
2022/05/24 07:32:16;;;;;;;;;;;16.30;99.90;;;;;;5053965;28;19932;-78
2022/05/24 07:34:42;;;;;;;;;;;16.30;99.90;;;;;;5048119;28;19933;-79
2022/05/24 07:37:14;;;;;;;;;;;16.30;99.90;;;;;;5048071;28;19931;-79
2022/05/24 07:39:41;;;;;;;;;;;16.30;99.90;;;;;;5055019;28;19925;-79
2022/05/24 07:47:36;;;;;;;;;;;16.20;99.90;;;;;;5046412;28;20750;-79
2022/05/24 07:50:06;;;;;;;;;;;16.20;99.90;;;;;;5049155;28;19939;-79
2022/05/24 07:52:35;;;;;;;;;;;16.20;99.90;;;;;;5054911;28;19932;-79
2022/05/24 07:55:02;;;;;;;;;;;16.20;99.90;;;;;;5051399;28;19947;-79
2022/05/24 07:57:29;;;;;;;;;;;16.30;99.90;;;;;;5054121;28;20369;-79
2022/05/24 07:59:56;;;;;;;;;;;16.20;99.90;;;;;;5049798;28;20028;-79
2022/05/24 08:02:23;;;;;;;;;;;16.20;99.90;;;;;;5051584;28;20315;-79
2022/05/24 08:04:53;;;;;;;;;;;16.20;99.90;;;;;;5047431;28;22828;-79
2022/05/24 08:07:20;;;;;;;;;;;16.20;99.90;;;;;;5049154;28;20280;-78
2022/05/24 08:09:48;;;;;;;;;;;16.20;99.90;;;;;;5045812;28;19964;-79
2022/05/24 08:12:15;;;;;;;;;;;16.20;99.90;;;;;;5054918;28;19924;-79
2022/05/24 08:14:42;;;;;;;;;;;16.20;99.90;;;;;;5052086;28;19936;-79
2022/05/24 08:17:09;;;;;;;;;;;16.20;99.90;;;;;;5057013;28;19963;-79
2022/05/24 08:19:36;;;;;;;;;;;16.20;99.90;;;;;;5050590;28;20086;-79
2022/05/24 08:22:03;;;;;;;;;;;16.20;99.90;;;;;;5049092;28;19932;-79
2022/05/24 08:24:30;;;;;;;;;;;16.20;99.90;;;;;;5049189;28;19931;-79
2022/05/24 08:26:58;;;;;;;;;;;16.20;99.90;;;;;;5048335;28;19939;-78
2022/05/24 08:29:25;;;;;;;;;;;16.20;99.90;;;;;;5051854;28;20019;-79
2022/05/24 08:31:52;;;;;;;;;;;16.20;99.90;;;;;;5059893;28;19956;-79
2022/05/24 08:34:19;;;;;;;;;;;16.30;99.90;;;;;;5058066;28;19975;-79
2022/05/24 08:36:46;;;;;;;;;;;16.30;99.90;;;;;;5055651;28;20353;-79
2022/05/24 08:39:13;;;;;;;;;;;16.30;99.90;;;;;;5046332;28;20540;-79
2022/05/24 08:41:49;;;;;;;;;;;16.20;99.90;;;;;;5048969;28;19966;-79
2022/05/24 08:49:54;;;;;;;;;;;16.20;99.90;;;;;;5051776;28;19921;-79
2022/05/24 08:52:22;;;;;;;;;;;16.20;99.90;;;;;;5050125;28;19931;-79
2022/05/24 08:54:49;;;;;;;;;;;16.20;99.90;;;;;;5050694;28;19978;-78
2022/05/24 08:57:21;;;;;;;;;;;16.20;99.90;;;;;;5053386;28;19986;-78
2022/05/24 08:59:52;;;;;;;;;;;16.20;99.90;;;;;;5052170;28;19952;-79
2022/05/24 09:02:20;;;;;;;;;;;16.20;99.90;;;;;;5052776;28;19925;-79
2022/05/24 09:04:47;;;;;;;;;;;16.20;99.90;;;;;;5048404;28;20397;-81
2022/05/24 09:07:18;;;;;;;;;;;16.20;99.90;;;;;;5044632;28;19932;-78
2022/05/24 09:09:52;;;;;;;;;;;16.10;99.90;;;;;;5039979;28;19932;-79
2022/05/24 09:12:27;;;;;;;;;;;16.10;99.90;;;;;;5055609;28;19957;-78
2022/05/24 09:15:00;;;;;;;;;;;16.10;99.90;;;;;;5049450;28;19925;-78
2022/05/24 09:17:33;;;;;;;;;;;16.10;99.90;;;;;;5052565;28;19925;-79
2022/05/24 09:20:00;;;;;;;;;;;16.10;99.90;;;;;;5053011;28;19928;-79
2022/05/24 09:22:33;;;;;;;;;;;16.10;99.90;;;;;;5044303;28;19928;-79
2022/05/24 09:25:00;;;;;;;;;;;16.10;99.90;;;;;;5049222;28;20027;-79
2022/05/24 09:27:29;;;;;;;;;;;16.10;99.90;;;;;;5045881;28;19932;-79
2022/05/24 09:30:03;;;;;;;;;;;16.10;99.90;;;;;;5052521;28;20016;-79
2022/05/24 09:32:32;;;;;;;;;;;16.10;99.90;;;;;;5049814;28;19971;-79
2022/05/24 09:35:04;;;;;;;;;;;16.10;99.90;;;;;;5049444;28;19932;-79
2022/05/24 09:37:32;;;;;;;;;;;16.00;99.90;;;;;;5045665;28;19968;-79
2022/05/24 09:40:00;;;;;;;;;;;16.00;99.90;;;;;;5044950;28;19996;-78
2022/05/24 09:42:28;;;;;;;;;;;16.00;99.90;;;;;;5049371;28;19925;-79
2022/05/24 09:44:58;;;;;;;;;;;16.00;99.90;;;;;;5051370;28;19925;-79
2022/05/24 09:47:30;;;;;;;;;;;16.00;99.90;;;;;;5051529;28;20012;-79
2022/05/24 09:50:19;;;;;;;;;;;16.00;99.90;;;;;;5049014;28;19929;-78
2022/05/24 09:53:04;;;;;;;;;;;16.00;99.90;;;;;;5052009;28;20375;-78
2022/05/24 09:55:38;;;;;;;;;;;16.00;99.90;;;;;;5066744;28;19925;-78
2022/05/24 09:58:16;;;;;;;;;;;16.00;99.90;;;;;;5052204;28;19948;-79
2022/05/24 10:00:48;;;;;;;;;;;16.00;99.90;;;;;;5052036;28;20353;-79
2022/05/24 10:03:20;;;;;;;;;;;16.00;99.90;;;;;;5050861;28;19924;-78
2022/05/24 10:05:53;;;;;;;;;;;16.00;99.90;;;;;;5047574;28;19939;-79
2022/05/24 10:08:20;;;;;;;;;;;16.00;99.90;;;;;;5051696;28;20310;-80
2022/05/24 10:10:49;;;;;;;;;;;16.00;99.90;;;;;;5049817;28;19968;-78
2022/05/24 10:13:19;;;;;;;;;;;16.00;99.90;;;;;;5044707;28;19973;-79
2022/05/24 10:15:50;;;;;;;;;;;16.00;99.90;;;;;;5048472;28;19974;-80
2022/05/24 10:18:25;;;;;;;;;;;15.90;99.90;;;;;;5050894;28;20034;-79
2022/05/24 10:20:55;;;;;;;;;;;15.90;99.90;;;;;;5046992;28;19925;-79
2022/05/24 10:23:41;;;;;;;;;;;15.90;99.90;;;;;;5042945;28;19925;-79
2022/05/24 10:26:14;;;;;;;;;;;15.90;99.90;;;;;;5043753;28;19925;-79
2022/05/24 10:28:49;;;;;;;;;;;15.90;99.90;;;;;;5062408;28;19932;-79
2022/05/24 10:31:23;;;;;;;;;;;15.90;99.90;;;;;;5051264;28;19963;-79
2022/05/24 10:39:20;;;;;;;;;;;15.80;99.90;;;;;;5151123;22;20010;-77
2022/05/24 10:41:53;;;;;;;;;;;15.80;99.90;;;;;;5078402;28;19948;-76
2022/05/24 10:44:22;;;;;;;;;;;15.90;99.90;;;;;;5083995;28;19924;-79
2022/05/24 10:46:53;;;;;;;;;;;15.80;99.90;;;;;;5080960;28;20026;-77
2022/05/24 10:49:25;;;;;;;;;;;15.80;99.90;;;;;;5077851;28;20350;-76
2022/05/24 10:51:55;;;;;;;;;;;15.80;99.90;;;;;;5086184;28;20386;-78
2022/05/24 10:54:29;;;;;;;;;;;15.80;99.90;;;;;;5090195;28;19924;-78
2022/05/24 10:56:58;;;;;;;;;;;15.80;99.90;;;;;;5084922;28;19924;-75
2022/05/24 10:59:30;;;;;;;;;;;15.80;99.90;;;;;;5080425;28;19971;-79
2022/05/24 11:02:00;;;;;;;;;;;15.80;99.90;;;;;;5077120;28;19925;-77
2022/05/24 11:04:35;;;;;;;;;;;15.80;99.90;;;;;;5081405;28;20405;-77
2022/05/24 11:07:06;;;;;;;;;;;15.80;99.90;;;;;;5089561;28;20010;-77
2022/05/24 11:09:35;;;;;;;;;;;15.80;99.90;;;;;;5087673;28;20003;-78
2022/05/24 11:12:04;;;;;;;;;;;15.80;99.90;;;;;;5091035;28;20404;-77
2022/05/24 11:14:36;;;;;;;;;;;15.80;99.90;;;;;;5079524;28;19929;-77
2022/05/24 11:17:03;;;;;;;;;;;15.80;99.90;;;;;;5089638;27;19939;-78
2022/05/24 11:19:35;;;;;;;;;;;15.80;99.90;;;;;;5077807;28;20310;-77
2022/05/24 11:22:05;;;;;;;;;;;15.80;99.90;;;;;;5076656;28;20019;-77
2022/05/24 11:24:34;;;;;;;;;;;15.80;99.90;;;;;;5077237;28;19931;-79
2022/05/24 11:27:02;;;;;;;;;;;15.90;99.90;;;;;;5084097;28;19928;-77
2022/05/24 11:29:31;;;;;;;;;;;15.90;99.90;;;;;;5074341;28;19924;-78
2022/05/24 11:32:02;;;;;;;;;;;15.80;99.90;;;;;;5075377;28;19928;-77
2022/05/24 11:34:30;;;;;;;;;;;15.90;99.90;;;;;;5078466;28;19954;-77
2022/05/24 11:37:07;;;;;;;;;;;15.80;99.90;;;;;;5080665;28;20341;-80
2022/05/24 11:39:35;;;;;;;;;;;15.90;99.90;;;;;;5095425;28;20140;-77
2022/05/24 11:42:20;;;;;;;;;;;15.90;99.90;;;;;;5082785;28;19925;-77
2022/05/24 11:44:47;;;;;;;;;;;15.90;99.90;;;;;;5079301;28;20465;-77
2022/05/24 11:47:29;;;;;;;;;;;15.90;99.90;;;;;;5080357;28;20023;-77
2022/05/24 11:49:57;;;;;;;;;;;15.90;99.90;;;;;;5079841;28;19933;-78
2022/05/24 11:52:43;;;;;;;;;;;15.90;99.90;;;;;;5080539;28;19936;-77
2022/05/24 11:55:11;;;;;;;;;;;15.90;99.90;;;;;;5081914;28;19928;-79
2022/05/24 11:57:40;;;;;;;;;;;15.90;99.90;;;;;;5084874;28;20394;-78
2022/05/24 12:00:08;;;;;;;;;;;15.90;99.90;;;;;;5079466;28;20302;-75
2022/05/24 12:08:30;;;;;;;;;;;16.00;99.90;;;;;;5074466;28;19924;-75
2022/05/24 12:11:10;;;;;;;;;;;16.00;99.90;;;;;;5089329;28;19924;-77
2022/05/24 12:13:40;;;;;;;;;;;16.00;99.90;;;;;;5077206;28;19925;-77
2022/05/24 12:16:22;;;;;;;;;;;16.00;99.80;;;;;;5092033;28;19929;-76
2022/05/24 12:18:58;;;;;;;;;;;16.10;99.70;;;;;;5082998;28;19925;-77
2022/05/24 12:21:48;;;;;;;;;;;16.00;99.60;;;;;;5071513;28;19928;-77
2022/05/24 12:24:48;;;;;;;;;;;16.10;99.60;;;;;;5074265;28;20670;-76
2022/05/24 12:27:19;;;;;;;;;;;16.10;99.90;;;;;;5019448;28;19925;-76
2022/05/24 12:29:47;;;;;;;;;;;16.10;99.80;;;;;;5000006;28;19937;-77
2022/05/24 12:32:16;;;;;;;;;;;16.10;99.80;;;;;;5054361;28;19994;-76
2022/05/24 12:34:43;;;;;;;;;;;16.10;99.90;;;;;;5089216;28;19924;-77
2022/05/24 12:37:16;;;;;;;;;;;16.10;99.90;;;;;;5080807;28;19928;-76
2022/05/24 12:40:04;;;;;;;;;;;16.20;99.70;;;;;;5082578;28;19931;-77
2022/05/24 12:42:33;;;;;;;;;;;16.20;99.90;;;;;;5078017;28;19928;-76
2022/05/24 12:45:01;;;;;;;;;;;16.20;99.80;;;;;;5077621;28;19974;-76
2022/05/24 12:47:29;;;;;;;;;;;16.20;99.80;;;;;;5081822;28;19924;-79
2022/05/24 12:49:56;;;;;;;;;;;16.20;99.70;;;;;;5076176;28;19925;-76
2022/05/24 12:52:24;;;;;;;;;;;16.30;99.60;;;;;;5083957;28;19933;-77
2022/05/24 12:54:52;;;;;;;;;;;16.30;99.50;;;;;;5082247;28;19925;-79
2022/05/24 12:57:20;;;;;;;;;;;16.30;99.60;;;;;;5216985;22;19924;-77
2022/05/24 12:59:53;;;;;;;;;;;16.30;99.40;;;;;;5638611;22;19931;-76
2022/05/24 13:02:28;;;;;;;;;;;16.40;99.80;;;;;;5081698;28;19955;-78
2022/05/24 13:04:57;;;;;;;;;;;16.40;99.60;;;;;;5073263;28;19935;-78
2022/05/24 13:07:35;;;;;;;;;;;16.40;99.70;;;;;;5066872;28;19936;-76
2022/05/24 13:10:03;;;;;;;;;;;16.40;99.80;;;;;;5068803;28;19983;-76
2022/05/24 13:12:30;;;;;;;;;;;16.50;99.90;;;;;;5070094;28;20011;-75
2022/05/24 13:15:00;;;;;;;;;;;16.50;99.90;;;;;;5067185;28;20023;-77
2022/05/24 13:17:28;;;;;;;;;;;16.50;99.90;;;;;;5062218;28;19929;-77
2022/05/24 13:19:57;;;;;;;;;;;16.50;99.90;;;;;;5070208;28;19924;-76
2022/05/24 13:22:25;;;;;;;;;;;16.60;99.90;;;;;;5069711;28;19971;-78
2022/05/24 13:24:56;;;;;;;;;;;16.60;99.90;;;;;;5069685;28;19932;-76
2022/05/24 13:27:23;;;;;;;;;;;16.60;99.90;;;;;;5058870;28;20476;-79
2022/05/24 13:35:30;;;;;;;;;;;16.60;99.90;;;;;;5063440;28;19928;-76
2022/05/24 13:37:58;;;;;;;;;;;16.70;99.90;;;;;;5073518;28;20391;-77
2022/05/24 13:40:36;;;;;;;;;;;16.70;99.90;;;;;;5065846;28;20240;-79
2022/05/24 13:43:03;;;;;;;;;;;16.70;99.90;;;;;;5081194;28;19932;-78
2022/05/24 13:45:34;;;;;;;;;;;16.70;99.90;;;;;;5064185;28;21468;-76
2022/05/24 13:48:03;;;;;;;;;;;16.70;99.90;;;;;;5068454;28;20386;-76
2022/05/24 13:50:36;;;;;;;;;;;16.70;99.90;;;;;;5068610;28;19931;-77
2022/05/24 13:53:04;;;;;;;;;;;16.80;99.90;;;;;;5059968;28;19932;-77
2022/05/24 13:55:32;;;;;;;;;;;16.80;99.90;;;;;;5063238;28;19929;-76
2022/05/24 13:58:02;;;;;;;;;;;16.80;99.90;;;;;;5068990;28;20382;-76
2022/05/24 14:00:32;;;;;;;;;;;16.80;99.90;;;;;;5064341;28;19925;-78
2022/05/24 14:03:13;;;;;;;;;;;16.80;99.90;;;;;;5067730;28;19970;-77
2022/05/24 14:05:40;;;;;;;;;;;16.90;99.90;;;;;;5070929;28;19958;-76
2022/05/24 14:08:08;;;;;;;;;;;16.90;99.90;;;;;;5070485;28;19978;-76
2022/05/24 14:10:35;;;;;;;;;;;16.90;99.90;;;;;;5066483;28;19981;-76
2022/05/24 14:13:02;;;;;;;;;;;16.90;99.90;;;;;;5074184;28;19925;-76
2022/05/24 14:15:29;;;;;;;;;;;17.00;99.90;;;;;;5065296;28;19932;-76
2022/05/24 14:17:55;;;;;;;;;;;16.90;99.90;;;;;;5066248;28;19931;-77
2022/05/24 14:20:24;;;;;;;;;;;16.90;99.90;;;;;;5062952;28;19931;-76
2022/05/24 14:22:52;;;;;;;;;;;17.00;99.90;;;;;;5066667;28;19924;-76
2022/05/24 14:25:18;;;;;;;;;;;17.00;99.90;;;;;;5069711;28;19979;-76
2022/05/24 14:27:46;;;;;;;;;;;17.00;99.90;;;;;;5063299;28;19948;-78
2022/05/24 14:30:14;;;;;;;;;;;17.00;99.90;;;;;;5065444;28;19967;-76
2022/05/24 14:32:41;;;;;;;;;;;17.10;99.90;;;;;;5066802;28;20382;-76
2022/05/24 14:35:09;;;;;;;;;;;17.10;99.90;;;;;;5069122;28;19967;-77
2022/05/24 14:37:37;;;;;;;;;;;17.10;99.90;;;;;;5069621;28;20283;-77
2022/05/24 14:40:05;;;;;;;;;;;17.10;99.90;;;;;;5078457;28;19928;-77
2022/05/24 14:42:33;;;;;;;;;;;17.10;99.90;;;;;;5059820;28;19940;-78
2022/05/24 14:45:01;;;;;;;;;;;17.10;99.90;;;;;;5065712;28;19982;-77
2022/05/24 14:47:28;;;;;;;;;;;17.10;99.90;;;;;;5068025;28;20307;-78
2022/05/24 14:49:55;;;;;;;;;;;17.10;99.90;;;;;;5065716;28;19924;-76
2022/05/24 14:52:24;;;;;;;;;;;17.10;99.90;;;;;;5073288;28;19978;-78
2022/05/24 14:54:52;;;;;;;;;;;17.20;99.90;;;;;;5069413;28;19933;-76
2022/05/24 14:57:19;;;;;;;;;;;17.20;99.90;;;;;;5069592;28;19929;-75
2022/05/24 14:59:47;;;;;;;;;;;17.20;99.90;;;;;;5065741;28;19936;-78
2022/05/24 15:02:14;;;;;;;;;;;17.20;99.90;;;;;;5053688;28;20645;-76
2022/05/24 15:04:42;;;;;;;;;;;17.20;99.90;;;;;;5067915;28;20003;-76
2022/05/24 15:15:21;;;;;;;;;;;17.20;99.90;;;;;;5071013;28;19935;-76
2022/05/24 15:17:48;;;;;;;;;;;17.20;99.90;;;;;;5071655;28;19929;-76